Ever Ulysses — 9V7962 — position and weather

sailwx.info

Track history (hours):
 
Tides and Currents Weather Stations Pressure Air Temp Water Temp Dewpoint Dewpoint Depression Visibility Wind Speed Wind Dir Waves Ship Positions

Ever Ulysses

Last reported at 2014-Dec-21 18:03 UTC. Time now 2014-Dec-21 19:26 UTC.
Position N 29°49' E 122°57'.

Length 285 m; draft 12 m.

Type: Ship (hazmat cat D). MMSI: 564442000.

Date/timePositionNaut miles runAvg speedWind from/ knotsBaromVisibWave heightAir tempDewpointWater temp
2014-Dec-21 18:03N 29°49' E 122°57'917.5
2014-Dec-21 17:34N 29°45' E 122°48'1817.8
2014-Dec-21 16:33N 29°41' E 122°28'1414.2
2014-Dec-21 15:33N 29°49' E 122°14'1010.6
2014-Dec-21 14:33N 29°54' E 122°03'1 0.3
2014-Dec-21 12:21N 29°53' E 122°03'0 0.0
2014-Dec-21 11:27N 29°53' E 122°03'0 0.0
2014-Dec-21 10:33N 29°53' E 122°03'0 0.0
2014-Dec-21 09:33N 29°53' E 122°03'0 0.0
2014-Dec-21 06:33N 29°53' E 122°03'0 0.0
2014-Dec-21 05:27N 29°53' E 122°03'0 0.0
2014-Dec-21 04:33N 29°53' E 122°03'0 0.0
2014-Dec-21 00:33N 29°54' E 122°03'5 5.3
2014-Dec-20 23:33N 29°56' E 122°09'1110.9
2014-Dec-20 22:31N 29°47' E 122°16'8 8.0
2014-Dec-20 21:33N 29°44' E 122°25'6 2.3
2014-Dec-20 19:05N 29°44' E 122°31'0 0.0
2014-Dec-20 08:30N 29°44' E 122°31'0 0.0
2014-Dec-20 07:33N 29°44' E 122°31'0 0.1
2014-Dec-20 06:33N 29°44' E 122°31'0 0.1
2014-Dec-20 05:32N 29°44' E 122°32'0 0.1
2014-Dec-20 04:33N 29°44' E 122°31'0 0.0
2014-Dec-20 03:33N 29°44' E 122°31'0 0.0
2014-Dec-20 02:33N 29°44' E 122°31'7 6.9
2014-Dec-20 01:32N 29°50' E 122°37'1414.4
2014-Dec-20 00:33N 29°58' E 122°50'3112.7
2014-Dec-19 22:09N 30°26' E 123°05'914.4
2014-Dec-19 21:30N 30°35' E 123°02'1515.2
2014-Dec-19 20:31N 30°49' E 122°54'2114.9
2014-Dec-19 19:05N 31°05' E 122°38'814.3
2014-Dec-19 18:33N 31°06' E 122°30'1313.0
2014-Dec-19 17:33N 31°08' E 122°15'1514.8
2014-Dec-19 16:33N 31°15' E 121°59'1514.7
2014-Dec-19 15:33N 31°19' E 121°43'7 7.2
2014-Dec-19 14:33N 31°22' E 121°35'0 0.0
2014-Dec-19 13:33N 31°22' E 121°35'0 0.0
2014-Dec-19 12:33N 31°22' E 121°35'0 0.0
2014-Dec-19 11:33N 31°22' E 121°35'0 0.0
2014-Dec-19 10:33N 31°22' E 121°35'0 0.0
2014-Dec-19 09:33N 31°22' E 121°35'0 0.0
2014-Dec-19 08:33N 31°22' E 121°35'0 0.0
2014-Dec-19 07:33N 31°22' E 121°35'0 0.0
2014-Dec-19 06:33N 31°22' E 121°35'0 0.0
2014-Dec-19 05:33N 31°22' E 121°35'0 0.0
2014-Dec-19 04:33N 31°22' E 121°35'0 0.0
2014-Dec-19 03:33N 31°22' E 121°35'0 0.0
2014-Dec-19 02:33N 31°22' E 121°35'1 0.8
2014-Dec-19 01:33N 31°23' E 121°36'8 8.0
2014-Dec-19 00:33N 31°19' E 121°44'1111.3
2014-Dec-18 23:33N 31°15' E 121°57'1111.3
2014-Dec-18 22:34N 31°12' E 122°09'9 9.1
2014-Dec-18 21:33N 31°06' E 122°18'8 8.3
2014-Dec-18 20:33N 31°06' E 122°28'1010.0
2014-Dec-18 19:30N 31°07' E 122°40'9111.3
2014-Dec-18 11:25N 29°36' E 122°47'2813.8
2014-Dec-18 09:25N 29°09' E 122°39'40113.9
2014-Dec-17 04:33N 22°56' E 119°56'1615.7
2014-Dec-17 03:33N 22°43' E 120°04'1413.8
2014-Dec-17 02:33N 22°33' E 120°15'4 3.6
2014-Dec-17 01:31N 22°33' E 120°19'0 0.0
2014-Dec-17 00:31N 22°33' E 120°19'0 0.0
2014-Dec-16 23:31N 22°33' E 120°19'0 0.0
2014-Dec-16 22:25N 22°33' E 120°19'0 0.0
2014-Dec-16 21:31N 22°33' E 120°19'0 0.0
2014-Dec-16 20:13N 22°33' E 120°19'0 0.1
2014-Dec-16 19:25N 22°33' E 120°19'0 0.1
2014-Dec-16 18:31N 22°33' E 120°19'0 0.0
2014-Dec-16 17:31N 22°33' E 120°19'0 0.1
2014-Dec-16 16:31N 22°33' E 120°19'0 0.1
2014-Dec-16 15:33N 22°33' E 120°19'0 0.0
2014-Dec-16 14:33N 22°33' E 120°19'0 0.0
2014-Dec-16 13:27N 22°33' E 120°19'0 0.0
2014-Dec-16 12:33N 22°33' E 120°19'0 0.0
2014-Dec-16 11:33N 22°33' E 120°19'0 0.0
2014-Dec-16 10:33N 22°33' E 120°19'0 0.0
2014-Dec-16 09:33N 22°33' E 120°19'0 0.1
2014-Dec-16 08:27N 22°34' E 120°19'0 0.1
2014-Dec-16 07:33N 22°33' E 120°19'0 0.1
2014-Dec-16 06:33N 22°33' E 120°19'0 0.0
2014-Dec-16 05:33N 22°33' E 120°19'0 0.0
2014-Dec-16 03:27N 22°33' E 120°19'0 0.0
2014-Dec-16 01:09N 22°33' E 120°19'1 1.2
2014-Dec-16 00:07N 22°33' E 120°18'5 8.3
2014-Dec-15 23:33N 22°32' E 120°13'1212.0
2014-Dec-15 22:33N 22°31' E 119°60'2318.0
2014-Dec-15 21:15N 22°29' E 119°35'1917.9
2014-Dec-15 20:13N 22°28' E 119°15'1417.7
2014-Dec-15 19:25N 22°27' E 118°59'1517.7
2014-Dec-15 18:33N 22°25' E 118°43'1817.7
2014-Dec-15 17:33N 22°24' E 118°24'1817.8
2014-Dec-15 16:33N 22°21' E 118°05'2017.7
2014-Dec-15 15:26N 22°20' E 117°43'1517.8
2014-Dec-15 14:33N 22°18' E 117°26'16418.2
2014-Dec-15 05:31N 22°07' E 114°29'1515.5
2014-Dec-15 04:33N 22°07' E 114°13'8 8.4
2014-Dec-15 03:33N 22°14' E 114°08'5 0.4
2014-Dec-14 15:33N 22°18' E 114°06'20 9.0
2014-Dec-14 13:23N 22°11' E 114°25'25 6.2
2014-Dec-14 09:23N 22°34' E 114°16'1 0.9
2014-Dec-14 08:28N 22°34' E 114°16'0 0.0
2014-Dec-14 07:28N 22°34' E 114°16'0 0.0
2014-Dec-14 06:28N 22°34' E 114°16'0 0.0
2014-Dec-14 05:28N 22°34' E 114°16'0 0.0
2014-Dec-14 04:22N 22°34' E 114°16'0 0.0
2014-Dec-14 03:28N 22°34' E 114°16'0 0.0
2014-Dec-14 02:16N 22°34' E 114°16'0 0.0
2014-Dec-14 01:28N 22°34' E 114°16'0 0.0
2014-Dec-14 00:28N 22°34' E 114°16'23 3.9
2014-Dec-13 18:33N 22°24' E 113°53'3 2.6
2014-Dec-13 17:24N 22°27' E 113°54'0 0.0
2014-Dec-13 16:30N 22°27' E 113°54'0 0.0
2014-Dec-13 15:30N 22°27' E 113°54'0 0.0
2014-Dec-13 14:30N 22°27' E 113°54'0 0.0
2014-Dec-13 13:30N 22°27' E 113°54'0 0.0
2014-Dec-13 12:30N 22°27' E 113°54'0 0.0
2014-Dec-13 11:30N 22°27' E 113°54'0 0.0
2014-Dec-13 10:30N 22°27' E 113°54'0 0.0
2014-Dec-13 09:24N 22°27' E 113°54'0 0.0
2014-Dec-13 08:30N 22°27' E 113°54'0 0.0
2014-Dec-13 07:24N 22°27' E 113°54'2 1.8
2014-Dec-13 06:33N 22°26' E 113°53'10 8.5
2014-Dec-13 05:25N 22°21' E 114°02'  
Track history (hours):
 
Tides and Currents Weather Stations Pressure Air Temp Water Temp Dewpoint Dewpoint Depression Visibility Wind Speed Wind Dir Waves Ship Positions

Ever Ulysses

Last reported at 2014-Dec-21 18:03 UTC. Time now 2014-Dec-21 19:26 UTC.
Position N 29°49' E 122°57'.

Length 285 m; draft 12 m.

Type: Ship (hazmat cat D). MMSI: 564442000.

Date/timePositionNaut miles runAvg speedWind from/ knotsBaromVisibWave heightAir tempDewpointWater temp
2014-Dec-21 18:03N 29°49' E 122°57'917.5
2014-Dec-21 17:34N 29°45' E 122°48'1817.8
2014-Dec-21 16:33N 29°41' E 122°28'1414.2
2014-Dec-21 15:33N 29°49' E 122°14'1010.6
2014-Dec-21 14:33N 29°54' E 122°03'1 0.3
2014-Dec-21 12:21N 29°53' E 122°03'0 0.0
2014-Dec-21 11:27N 29°53' E 122°03'0 0.0
2014-Dec-21 10:33N 29°53' E 122°03'0 0.0
2014-Dec-21 09:33N 29°53' E 122°03'0 0.0
2014-Dec-21 06:33N 29°53' E 122°03'0 0.0
2014-Dec-21 05:27N 29°53' E 122°03'0 0.0
2014-Dec-21 04:33N 29°53' E 122°03'0 0.0
2014-Dec-21 00:33N 29°54' E 122°03'5 5.3
2014-Dec-20 23:33N 29°56' E 122°09'1110.9
2014-Dec-20 22:31N 29°47' E 122°16'8 8.0
2014-Dec-20 21:33N 29°44' E 122°25'6 2.3
2014-Dec-20 19:05N 29°44' E 122°31'0 0.0
2014-Dec-20 08:30N 29°44' E 122°31'0 0.0
2014-Dec-20 07:33N 29°44' E 122°31'0 0.1
2014-Dec-20 06:33N 29°44' E 122°31'0 0.1
2014-Dec-20 05:32N 29°44' E 122°32'0 0.1
2014-Dec-20 04:33N 29°44' E 122°31'0 0.0
2014-Dec-20 03:33N 29°44' E 122°31'0 0.0
2014-Dec-20 02:33N 29°44' E 122°31'7 6.9
2014-Dec-20 01:32N 29°50' E 122°37'1414.4
2014-Dec-20 00:33N 29°58' E 122°50'3112.7
2014-Dec-19 22:09N 30°26' E 123°05'914.4
2014-Dec-19 21:30N 30°35' E 123°02'1515.2
2014-Dec-19 20:31N 30°49' E 122°54'2114.9
2014-Dec-19 19:05N 31°05' E 122°38'814.3
2014-Dec-19 18:33N 31°06' E 122°30'1313.0
2014-Dec-19 17:33N 31°08' E 122°15'1514.8
2014-Dec-19 16:33N 31°15' E 121°59'1514.7
2014-Dec-19 15:33N 31°19' E 121°43'7 7.2
2014-Dec-19 14:33N 31°22' E 121°35'0 0.0
2014-Dec-19 13:33N 31°22' E 121°35'0 0.0
2014-Dec-19 12:33N 31°22' E 121°35'0 0.0
2014-Dec-19 11:33N 31°22' E 121°35'0 0.0
2014-Dec-19 10:33N 31°22' E 121°35'0 0.0
2014-Dec-19 09:33N 31°22' E 121°35'0 0.0
2014-Dec-19 08:33N 31°22' E 121°35'0 0.0
2014-Dec-19 07:33N 31°22' E 121°35'0 0.0
2014-Dec-19 06:33N 31°22' E 121°35'0 0.0
2014-Dec-19 05:33N 31°22' E 121°35'0 0.0
2014-Dec-19 04:33N 31°22' E 121°35'0 0.0
2014-Dec-19 03:33N 31°22' E 121°35'0 0.0
2014-Dec-19 02:33N 31°22' E 121°35'1 0.8
2014-Dec-19 01:33N 31°23' E 121°36'8 8.0
2014-Dec-19 00:33N 31°19' E 121°44'1111.3
2014-Dec-18 23:33N 31°15' E 121°57'1111.3
2014-Dec-18 22:34N 31°12' E 122°09'9 9.1
2014-Dec-18 21:33N 31°06' E 122°18'8 8.3
2014-Dec-18 20:33N 31°06' E 122°28'1010.0
2014-Dec-18 19:30N 31°07' E 122°40'9111.3
2014-Dec-18 11:25N 29°36' E 122°47'2813.8
2014-Dec-18 09:25N 29°09' E 122°39'40113.9
2014-Dec-17 04:33N 22°56' E 119°56'1615.7
2014-Dec-17 03:33N 22°43' E 120°04'1413.8
2014-Dec-17 02:33N 22°33' E 120°15'4 3.6
2014-Dec-17 01:31N 22°33' E 120°19'0 0.0
2014-Dec-17 00:31N 22°33' E 120°19'0 0.0
2014-Dec-16 23:31N 22°33' E 120°19'0 0.0
2014-Dec-16 22:25N 22°33' E 120°19'0 0.0
2014-Dec-16 21:31N 22°33' E 120°19'0 0.0
2014-Dec-16 20:13N 22°33' E 120°19'0 0.1
2014-Dec-16 19:25N 22°33' E 120°19'0 0.1
2014-Dec-16 18:31N 22°33' E 120°19'0 0.0
2014-Dec-16 17:31N 22°33' E 120°19'0 0.1
2014-Dec-16 16:31N 22°33' E 120°19'0 0.1
2014-Dec-16 15:33N 22°33' E 120°19'0 0.0
2014-Dec-16 14:33N 22°33' E 120°19'0 0.0
2014-Dec-16 13:27N 22°33' E 120°19'0 0.0
2014-Dec-16 12:33N 22°33' E 120°19'0 0.0
2014-Dec-16 11:33N 22°33' E 120°19'0 0.0
2014-Dec-16 10:33N 22°33' E 120°19'0 0.0
2014-Dec-16 09:33N 22°33' E 120°19'0 0.1
2014-Dec-16 08:27N 22°34' E 120°19'0 0.1
2014-Dec-16 07:33N 22°33' E 120°19'0 0.1
2014-Dec-16 06:33N 22°33' E 120°19'0 0.0
2014-Dec-16 05:33N 22°33' E 120°19'0 0.0
2014-Dec-16 03:27N 22°33' E 120°19'0 0.0
2014-Dec-16 01:09N 22°33' E 120°19'1 1.2
2014-Dec-16 00:07N 22°33' E 120°18'5 8.3
2014-Dec-15 23:33N 22°32' E 120°13'1212.0
2014-Dec-15 22:33N 22°31' E 119°60'2318.0
2014-Dec-15 21:15N 22°29' E 119°35'1917.9
2014-Dec-15 20:13N 22°28' E 119°15'1417.7
2014-Dec-15 19:25N 22°27' E 118°59'1517.7
2014-Dec-15 18:33N 22°25' E 118°43'1817.7
2014-Dec-15 17:33N 22°24' E 118°24'1817.8
2014-Dec-15 16:33N 22°21' E 118°05'2017.7
2014-Dec-15 15:26N 22°20' E 117°43'1517.8
2014-Dec-15 14:33N 22°18' E 117°26'16418.2
2014-Dec-15 05:31N 22°07' E 114°29'1515.5
2014-Dec-15 04:33N 22°07' E 114°13'8 8.4
2014-Dec-15 03:33N 22°14' E 114°08'5 0.4
2014-Dec-14 15:33N 22°18' E 114°06'20 9.0
2014-Dec-14 13:23N 22°11' E 114°25'25 6.2
2014-Dec-14 09:23N 22°34' E 114°16'1 0.9
2014-Dec-14 08:28N 22°34' E 114°16'0 0.0
2014-Dec-14 07:28N 22°34' E 114°16'0 0.0
2014-Dec-14 06:28N 22°34' E 114°16'0 0.0
2014-Dec-14 05:28N 22°34' E 114°16'0 0.0
2014-Dec-14 04:22N 22°34' E 114°16'0 0.0
2014-Dec-14 03:28N 22°34' E 114°16'0 0.0
2014-Dec-14 02:16N 22°34' E 114°16'0 0.0
2014-Dec-14 01:28N 22°34' E 114°16'0 0.0
2014-Dec-14 00:28N 22°34' E 114°16'23 3.9
2014-Dec-13 18:33N 22°24' E 113°53'3 2.6
2014-Dec-13 17:24N 22°27' E 113°54'0 0.0
2014-Dec-13 16:30N 22°27' E 113°54'0 0.0
2014-Dec-13 15:30N 22°27' E 113°54'0 0.0
2014-Dec-13 14:30N 22°27' E 113°54'0 0.0
2014-Dec-13 13:30N 22°27' E 113°54'0 0.0
2014-Dec-13 12:30N 22°27' E 113°54'0 0.0
2014-Dec-13 11:30N 22°27' E 113°54'0 0.0
2014-Dec-13 10:30N 22°27' E 113°54'0 0.0
2014-Dec-13 09:24N 22°27' E 113°54'0 0.0
2014-Dec-13 08:30N 22°27' E 113°54'0 0.0
2014-Dec-13 07:24N 22°27' E 113°54'2 1.8
2014-Dec-13 06:33N 22°26' E 113°53'10 8.5
2014-Dec-13 05:25N 22°21' E 114°02'  

Dump ship's entire track history